Paoeh — SA9057 — position and weather

sailwx.info

Track history (hours):
 
Tides and Currents Weather Stations Pressure Air Temp Water Temp Dewpoint Dewpoint Depression Visibility Wind Speed Wind Dir Waves Ship Positions

Paoeh

Last reported at 2015-Aug-02 16:32 UTC. Time now 2015-Aug-03 13:07 UTC.
Position N 52°23' E 004°54'.

Length 11 m.

Type: Pleasure craft. MMSI: 265610080.

Date/timePositionNaut miles runAvg speedWind from/ knotsBaromVisibWave heightAir tempDewpointWater temp
2015-Aug-02 16:32N 52°23' E 004°54'3 2.9
2015-Aug-02 15:33N 52°22' E 004°59'5 5.5
2015-Aug-02 14:33N 52°24' E 005°07'5 5.4
2015-Aug-02 13:33N 52°29' E 005°13'5 5.4
2015-Aug-02 12:33N 52°34' E 005°13'5 5.2
2015-Aug-02 11:33N 52°39' E 005°14'3 2.9
2015-Aug-02 10:33N 52°42' E 005°17'5 4.6
2015-Aug-02 09:33N 52°45' E 005°23'5 5.0
2015-Aug-02 08:33N 52°47' E 005°30'26 0.7
2015-Jul-31 17:21N 53°11' E 005°47'1 1.3
2015-Jul-31 16:26N 53°12' E 005°47'1 0.5
2015-Jul-31 14:07N 53°13' E 005°49'3 4.6
2015-Jul-31 13:30N 53°16' E 005°50'4 3.8
2015-Jul-31 12:33N 53°18' E 005°54'6 2.5
2015-Jul-31 10:07N 53°19' E 006°04'19 0.8
2015-Jul-30 11:06N 53°13' E 006°35'0 0.3
2015-Jul-30 10:18N 53°13' E 006°36'2 2.3
2015-Jul-30 09:31N 53°14' E 006°38'5 5.5
2015-Jul-30 08:33N 53°17' E 006°46'5 5.0
2015-Jul-30 07:32N 53°19' E 006°54'2 1.6
2015-Jul-30 06:33N 53°20' E 006°56'0 0.0
2015-Jul-29 07:17N 53°20' E 006°56'0 0.0
2015-Jul-29 06:26N 53°20' E 006°56'0 0.0
2015-Jul-28 07:30N 53°20' E 006°56'0 0.0
2015-Jul-28 06:33N 53°20' E 006°56'0 0.0
2015-Jul-26 14:33N 53°20' E 006°56'0 0.0
2015-Jul-24 18:15N 53°20' E 006°56'0 0.0
2015-Jul-24 17:30N 53°20' E 006°56'0 0.0
2015-Jul-24 16:30N 53°20' E 006°56'0 0.0
2015-Jul-24 15:30N 53°20' E 006°56'0 0.0
2015-Jul-24 14:33N 53°20' E 006°56'0 0.0
2015-Jul-24 13:33N 53°20' E 006°56'3 2.9
2015-Jul-24 12:33N 53°19' E 007°01'7 7.4
2015-Jul-24 11:33N 53°26' E 006°55'8 7.6
2015-Jul-24 10:33N 53°31' E 006°46'  
Track history (hours):
 
Tides and Currents Weather Stations Pressure Air Temp Water Temp Dewpoint Dewpoint Depression Visibility Wind Speed Wind Dir Waves Ship Positions

Paoeh

Last reported at 2015-Aug-02 16:32 UTC. Time now 2015-Aug-03 13:07 UTC.
Position N 52°23' E 004°54'.

Length 11 m.

Type: Pleasure craft. MMSI: 265610080.

Date/timePositionNaut miles runAvg speedWind from/ knotsBaromVisibWave heightAir tempDewpointWater temp
2015-Aug-02 16:32N 52°23' E 004°54'3 2.9
2015-Aug-02 15:33N 52°22' E 004°59'5 5.5
2015-Aug-02 14:33N 52°24' E 005°07'5 5.4
2015-Aug-02 13:33N 52°29' E 005°13'5 5.4
2015-Aug-02 12:33N 52°34' E 005°13'5 5.2
2015-Aug-02 11:33N 52°39' E 005°14'3 2.9
2015-Aug-02 10:33N 52°42' E 005°17'5 4.6
2015-Aug-02 09:33N 52°45' E 005°23'5 5.0
2015-Aug-02 08:33N 52°47' E 005°30'26 0.7
2015-Jul-31 17:21N 53°11' E 005°47'1 1.3
2015-Jul-31 16:26N 53°12' E 005°47'1 0.5
2015-Jul-31 14:07N 53°13' E 005°49'3 4.6
2015-Jul-31 13:30N 53°16' E 005°50'4 3.8
2015-Jul-31 12:33N 53°18' E 005°54'6 2.5
2015-Jul-31 10:07N 53°19' E 006°04'19 0.8
2015-Jul-30 11:06N 53°13' E 006°35'0 0.3
2015-Jul-30 10:18N 53°13' E 006°36'2 2.3
2015-Jul-30 09:31N 53°14' E 006°38'5 5.5
2015-Jul-30 08:33N 53°17' E 006°46'5 5.0
2015-Jul-30 07:32N 53°19' E 006°54'2 1.6
2015-Jul-30 06:33N 53°20' E 006°56'0 0.0
2015-Jul-29 07:17N 53°20' E 006°56'0 0.0
2015-Jul-29 06:26N 53°20' E 006°56'0 0.0
2015-Jul-28 07:30N 53°20' E 006°56'0 0.0
2015-Jul-28 06:33N 53°20' E 006°56'0 0.0
2015-Jul-26 14:33N 53°20' E 006°56'0 0.0
2015-Jul-24 18:15N 53°20' E 006°56'0 0.0
2015-Jul-24 17:30N 53°20' E 006°56'0 0.0
2015-Jul-24 16:30N 53°20' E 006°56'0 0.0
2015-Jul-24 15:30N 53°20' E 006°56'0 0.0
2015-Jul-24 14:33N 53°20' E 006°56'0 0.0
2015-Jul-24 13:33N 53°20' E 006°56'3 2.9
2015-Jul-24 12:33N 53°19' E 007°01'7 7.4
2015-Jul-24 11:33N 53°26' E 006°55'8 7.6
2015-Jul-24 10:33N 53°31' E 006°46'  

Dump ship's entire track history